Time;durP1;ratioP1;P1;durP2;ratioP2;P2;SDS_P1;SDS_P2;PMS_P1;PMS_P2;Temp;Humidity;BMP_temperature;BMP_pressure;BME280_temperature;BME280_humidity;BME280_pressure;Samples;Min_cycle;Max_cycle;Signal;HPM_P1;HPM_P2
2021/07/08 00:01:52;;;;;;;8.18;4.42;;;;;;;18.70;74.86;100253.00;1746680;81;21071;-66
2021/07/08 00:04:18;;;;;;;11.15;4.90;;;;;;;18.73;74.94;100261.20;1767497;81;21640;-66
2021/07/08 00:06:44;;;;;;;;;;;;;;;18.81;74.80;100259.08;1762306;81;21043;-66
2021/07/08 00:09:13;;;;;;;8.80;4.80;;;;;;;18.87;74.62;100260.02;1755390;81;20171;-65
2021/07/08 00:11:39;;;;;;;10.53;4.40;;;;;;;18.93;74.56;100266.20;1743021;82;21058;-64
2021/07/08 00:14:06;;;;;;;6.12;4.62;;;;;;;19.01;74.38;100256.36;1763221;81;21474;-65
2021/07/08 00:16:33;;;;;;;10.23;4.70;;;;;;;19.04;74.23;100259.30;1744715;81;20960;-64
2021/07/08 00:19:01;;;;;;;10.30;5.25;;;;;;;19.04;74.19;100248.27;1773523;81;20943;-65
2021/07/08 00:21:28;;;;;;;6.87;4.12;;;;;;;19.05;74.26;100251.84;1773389;81;20971;-64
2021/07/08 00:23:54;;;;;;;;;;;;;;;19.05;74.27;100254.61;1771546;81;20932;-65
2021/07/08 00:26:20;;;;;;;7.27;4.33;;;;;;;19.00;74.28;100247.83;1753104;81;20118;-64
2021/07/08 00:28:47;;;;;;;9.35;5.12;;;;;;;18.99;74.54;100260.80;1742512;81;21048;-65
2021/07/08 00:31:14;;;;;;;10.93;4.70;;;;;;;18.98;74.62;100259.20;1768037;81;20980;-64
2021/07/08 00:33:40;;;;;;;10.05;4.70;;;;;;;19.00;74.45;100261.62;1763831;81;21008;-64
2021/07/08 00:36:08;;;;;;;7.90;4.42;;;;;;;19.00;74.40;100258.30;1741011;81;21025;-64
2021/07/08 00:38:34;;;;;;;10.23;5.00;;;;;;;19.00;74.44;100261.62;1742148;81;21083;-64
2021/07/08 00:41:01;;;;;;;8.60;4.78;;;;;;;18.94;74.63;100257.37;1756890;81;21561;-64
2021/07/08 00:43:30;;;;;;;;;;;;;;;18.89;74.76;100255.55;1739137;81;21015;-64
2021/07/08 00:45:55;;;;;;;8.75;5.22;;;;;;;18.80;74.93;100256.88;1742851;81;20107;-65
2021/07/08 00:48:22;;;;;;;7.87;4.67;;;;;;;18.67;75.37;100258.33;1754921;81;21051;-65
2021/07/08 00:50:48;;;;;;;5.97;4.05;;;;;;;18.69;75.26;100247.22;1766814;81;21032;-65
2021/07/08 00:53:17;;;;;;;7.35;4.42;;;;;;;18.71;75.16;100252.41;1761264;81;21581;-65
2021/07/08 00:55:53;;;;;;;8.05;4.65;;;;;;;18.70;75.21;100253.56;1766615;81;21028;-65
2021/07/08 00:58:20;;;;;;;11.40;4.97;;;;;;;18.69;75.21;100252.73;1765353;81;20976;-65
2021/07/08 01:00:46;;;;;;;;;;;;;;;18.67;75.29;100248.67;1763728;81;21051;-65
2021/07/08 01:03:13;;;;;;;10.10;4.28;;;;;;;18.67;75.41;100253.59;1767718;81;20113;-65
2021/07/08 01:05:44;;;;;;;10.15;4.83;;;;;;;18.60;75.63;100249.67;1771283;81;21066;-65
2021/07/08 01:08:12;;;;;;;7.50;4.70;;;;;;;18.55;75.80;100245.64;1756671;81;21040;-65
2021/07/08 01:10:43;;;;;;;7.62;4.20;;;;;;;18.56;75.85;100251.42;1745631;81;21506;-65
2021/07/08 01:13:09;;;;;;;8.53;4.30;;;;;;;18.60;75.77;100254.59;1763539;81;21061;-65
2021/07/08 01:15:36;;;;;;;8.00;4.25;;;;;;;18.55;75.73;100244.27;1755304;81;21522;-65
2021/07/08 01:18:03;;;;;;;7.42;4.08;;;;;;;18.63;75.77;100255.94;1764176;81;21072;-65
2021/07/08 01:20:31;;;;;;;12.05;4.85;;;;;;;18.63;75.82;100253.18;1741892;81;21057;-65
2021/07/08 01:23:00;;;;;;;9.68;4.62;;;;;;;18.61;75.95;100250.72;1754423;81;21094;-65
2021/07/08 01:25:29;;;;;;;8.18;4.40;;;;;;;18.58;76.14;100257.42;1757788;81;21028;-65
2021/07/08 01:27:56;;;;;;;10.20;4.40;;;;;;;18.57;76.19;100264.05;1735871;82;21013;-65
2021/07/08 01:30:23;;;;;;;8.10;4.60;;;;;;;18.61;76.20;100269.20;1732903;81;20967;-64
2021/07/08 01:32:50;;;;;;;7.62;4.08;;;;;;;18.65;76.17;100274.35;1746064;81;21094;-65
2021/07/08 01:35:16;;;;;;;9.23;4.40;;;;;;;18.70;76.07;100265.97;1765870;81;20959;-65
2021/07/08 01:37:42;;;;;;;10.60;4.70;;;;;;;18.70;76.03;100266.78;1730752;81;21042;-65
2021/07/08 01:40:11;;;;;;;9.28;4.35;;;;;;;18.69;76.09;100268.47;1716003;81;20944;-65
2021/07/08 01:42:38;;;;;;;7.37;3.98;;;;;;;18.68;76.14;100270.41;1747181;81;21078;-65
2021/07/08 01:45:05;;;;;;;8.90;4.62;;;;;;;18.69;76.09;100263.77;1752018;81;21445;-65
2021/07/08 01:47:32;;;;;;;6.20;3.98;;;;;;;18.65;76.30;100266.89;1723547;81;21082;-65
2021/07/08 01:49:58;;;;;;;;;;;;;;;18.65;76.47;100263.32;1740114;82;21556;-65
2021/07/08 01:52:25;;;;;;;7.43;3.70;;;;;;;18.66;76.54;100264.95;1734054;81;20095;-65
2021/07/08 01:54:52;;;;;;;12.43;4.62;;;;;;;18.66;76.54;100264.95;1734395;81;20995;-65
2021/07/08 01:57:18;;;;;;;7.53;4.15;;;;;;;18.69;76.64;100265.70;1740606;82;21110;-65
2021/07/08 01:59:44;;;;;;;;;;;;;;;18.70;76.66;100265.97;1761338;81;21020;-65
2021/07/08 02:02:11;;;;;;;5.62;3.92;;;;;;;18.73;76.57;100267.53;1755393;81;20108;-65
2021/07/08 02:04:37;;;;;;;10.28;4.53;;;;;;;18.71;76.62;100267.02;1740827;81;21596;-65
2021/07/08 02:07:03;;;;;;;;;;;;;;;18.73;76.57;100266.72;1756712;81;21063;-65
2021/07/08 02:09:30;;;;;;;6.20;3.77;;;;;;;18.72;76.56;100265.89;1741895;81;20111;-65
2021/07/08 02:12:01;;;;;;;8.88;4.53;;;;;;;18.68;76.78;100266.83;1746419;81;21524;-65
2021/07/08 02:14:28;;;;;;;9.38;4.30;;;;;;;18.66;76.90;100271.85;1753160;81;20976;-64
2021/07/08 02:16:55;;;;;;;7.53;4.05;;;;;;;18.63;77.05;100269.72;1743893;81;21043;-64
2021/07/08 02:19:22;;;;;;;8.03;4.33;;;;;;;18.64;77.12;100272.15;1757096;81;20984;-65
2021/07/08 02:21:50;;;;;;;9.93;4.65;;;;;;;18.62;77.19;100272.22;1763639;81;21075;-64
2021/07/08 02:24:17;;;;;;;9.85;3.92;;;;;;;18.62;77.27;100274.98;1750673;81;20995;-65
2021/07/08 02:26:43;;;;;;;;;;;;;;;18.67;77.33;100276.25;1751431;81;21585;-65
2021/07/08 02:29:11;;;;;;;7.92;4.30;;;;;;;18.74;77.25;100278.80;1740671;81;20136;-66
2021/07/08 02:31:37;;;;;;;7.35;4.08;;;;;;;18.74;77.35;100278.01;1740138;81;21035;-65
2021/07/08 02:34:04;;;;;;;;;;;;;;;18.81;77.24;100282.52;1745457;81;21082;-65
2021/07/08 02:36:31;;;;;;;8.28;4.33;;;;;;;18.95;76.95;100282.45;1738988;81;20105;-64
2021/07/08 02:38:57;;;;;;;8.30;4.28;;;;;;;19.00;76.74;100291.41;1739673;81;20976;-64
2021/07/08 02:41:24;;;;;;;8.48;4.25;;;;;;;19.10;76.46;100284.81;1762879;81;21554;-64
2021/07/08 02:43:51;;;;;;;7.83;4.65;;;;;;;19.15;76.27;100288.83;1750023;81;21020;-64
2021/07/08 02:46:17;;;;;;;6.15;4.22;;;;;;;19.20;76.09;100285.95;1752732;81;21508;-64
2021/07/08 02:48:44;;;;;;;8.55;4.00;;;;;;;19.30;75.85;100295.34;1740786;82;21056;-64
2021/07/08 02:51:11;;;;;;;7.15;4.22;;;;;;;19.42;75.42;100285.92;1748199;81;21518;-64
2021/07/08 02:53:38;;;;;;;8.68;4.50;;;;;;;19.52;75.09;100284.86;1721489;81;21077;-64
2021/07/08 02:56:05;;;;;;;10.05;4.53;;;;;;;19.61;74.93;100284.32;1745947;81;21042;-64
2021/07/08 02:58:31;;;;;;;9.15;4.50;;;;;;;19.63;74.84;100277.90;1741884;81;21027;-64
2021/07/08 03:00:58;;;;;;;8.53;4.05;;;;;;;19.71;74.61;100280.70;1741194;81;20999;-64
2021/07/08 03:03:25;;;;;;;10.68;4.35;;;;;;;19.82;74.31;100290.34;1741725;81;21075;-63
2021/07/08 03:05:51;;;;;;;8.73;4.37;;;;;;;19.92;74.10;100284.27;1713067;84;21055;-64
2021/07/08 03:08:18;;;;;;;9.35;4.50;;;;;;;19.97;73.98;100281.36;1697959;84;21047;-64
2021/07/08 03:10:46;;;;;;;10.35;4.42;;;;;;;19.96;73.99;100284.69;1761143;81;21000;-64
2021/07/08 03:13:13;;;;;;;8.60;4.05;;;;;;;20.00;74.22;100282.92;1746653;81;21075;-63
2021/07/08 03:15:40;;;;;;;7.80;4.90;;;;;;;20.15;74.41;100286.62;1747007;81;21047;-64
2021/07/08 03:18:07;;;;;;;7.75;4.08;;;;;;;20.41;74.37;100292.20;1760114;81;21060;-64
2021/07/08 03:20:34;;;;;;;9.23;4.50;;;;;;;20.68;74.31;100293.87;1732211;81;20988;-64
2021/07/08 03:23:03;;;;;;;10.45;4.10;;;;;;;20.96;73.91;100302.64;1760850;80;21102;-64
2021/07/08 03:25:31;;;;;;;10.32;4.67;;;;;;;21.19;73.11;100299.94;1762042;81;21022;-64
2021/07/08 03:27:58;;;;;;;8.83;4.53;;;;;;;21.45;72.42;100302.09;1766101;81;21562;-64
2021/07/08 03:30:25;;;;;;;9.75;4.90;;;;;;;21.76;71.51;100303.19;1748178;81;21094;-64
2021/07/08 03:32:52;;;;;;;7.90;5.10;;;;;;;22.03;70.52;100296.43;1697921;84;21031;-64
2021/07/08 03:35:18;;;;;;;8.40;5.50;;;;;;;22.27;69.21;100296.04;1764288;81;21012;-65
2021/07/08 03:37:45;;;;;;;14.30;5.58;;;;;;;22.53;68.15;100302.77;1749653;81;21118;-64
2021/07/08 03:40:14;;;;;;;10.23;5.12;;;;;;;22.76;67.10;100297.74;1739147;82;21071;-64
2021/07/08 03:42:41;;;;;;;10.10;4.85;;;;;;;23.02;66.55;100301.69;1750693;81;21016;-64
2021/07/08 03:45:08;;;;;;;7.08;4.67;;;;;;;23.28;65.71;100309.17;1755004;81;20972;-64
2021/07/08 03:47:35;;;;;;;9.80;5.25;;;;;;;23.50;64.94;100309.38;1740071;81;21130;-64
2021/07/08 03:50:05;;;;;;;8.18;4.95;;;;;;;23.75;63.85;100311.86;1740272;81;21000;-64
2021/07/08 03:52:32;;;;;;;13.05;4.80;;;;;;;24.04;62.98;100316.98;1745927;81;21617;-63
2021/07/08 03:55:00;;;;;;;11.12;4.92;;;;;;;24.25;62.33;100310.16;1744053;81;20965;-65
2021/07/08 03:57:26;;;;;;;8.65;4.75;;;;;;;24.44;61.06;100312.35;1753803;79;21091;-65
2021/07/08 03:59:53;;;;;;;12.63;4.28;;;;;;;24.53;60.62;100307.45;1748934;81;21003;-65
2021/07/08 04:02:19;;;;;;;7.33;4.40;;;;;;;24.70;60.45;100316.91;1756056;81;21019;-64
2021/07/08 04:04:46;;;;;;;9.30;4.53;;;;;;;24.90;59.77;100314.34;1755792;81;21028;-65
2021/07/08 04:07:12;;;;;;;8.23;4.03;;;;;;;25.07;58.96;100323.80;1753116;81;21078;-64
2021/07/08 04:09:39;;;;;;;7.22;4.70;;;;;;;25.28;58.32;100322.19;1761303;81;21011;-64
2021/07/08 04:12:07;;;;;;;10.25;4.62;;;;;;;25.68;57.26;100322.92;1756595;81;21023;-64
2021/07/08 04:14:34;;;;;;;7.20;4.37;;;;;;;25.83;56.69;100320.70;1737729;81;21035;-65
2021/07/08 04:17:02;;;;;;;7.55;4.15;;;;;;;25.83;56.69;100320.70;1736710;81;21091;-65
2021/07/08 04:19:29;;;;;;;9.50;4.15;;;;;;;26.02;56.09;100331.15;1758500;81;21515;-65
2021/07/08 04:21:56;;;;;;;10.10;4.65;;;;;;;26.13;54.96;100326.64;1758040;81;21016;-64
2021/07/08 04:24:22;;;;;;;9.43;4.45;;;;;;;26.12;54.25;100331.99;1748260;81;21534;-65
2021/07/08 04:26:49;;;;;;;6.72;3.85;;;;;;;26.01;54.40;100330.34;1743542;81;21079;-65
2021/07/08 04:29:16;;;;;;;6.83;3.85;;;;;;;25.92;54.51;100340.88;1758772;81;20984;-64
2021/07/08 04:31:43;;;;;;;8.95;4.20;;;;;;;25.90;54.61;100334.83;1765755;81;21046;-64
2021/07/08 04:34:09;;;;;;;9.05;4.50;;;;;;;25.93;54.91;100341.11;1754012;81;21915;-65
2021/07/08 04:36:35;;;;;;;10.20;4.53;;;;;;;25.99;54.51;100344.42;1745079;81;21063;-64
2021/07/08 04:39:02;;;;;;;10.58;4.37;;;;;;;25.92;54.70;100342.27;1747448;81;20983;-64
2021/07/08 04:41:28;;;;;;;9.55;3.98;;;;;;;25.94;54.86;100351.66;1763073;81;21027;-64
2021/07/08 04:43:54;;;;;;;10.48;4.25;;;;;;;25.94;54.60;100346.89;1758147;81;21033;-65
2021/07/08 04:46:21;;;;;;;9.03;4.00;;;;;;;26.00;54.79;100354.42;1765300;81;21548;-63
2021/07/08 04:48:47;;;;;;;6.67;3.80;;;;;;;26.04;54.95;100358.90;1703441;81;21115;-64
2021/07/08 04:51:14;;;;;;;7.58;4.25;;;;;;;26.12;55.35;100358.50;1761423;81;21510;-63
2021/07/08 04:53:43;;;;;;;11.08;4.60;;;;;;;26.24;54.47;100369.61;1745303;81;21059;-63
2021/07/08 04:56:10;;;;;;;10.65;4.50;;;;;;;26.44;54.90;100366.28;1758019;81;21015;-64
2021/07/08 04:58:36;;;;;;;11.15;3.90;;;;;;;26.67;54.07;100366.66;1763726;81;21564;-64
2021/07/08 05:01:03;;;;;;;6.05;4.22;;;;;;;26.80;54.23;100368.72;1765673;81;20971;-64
2021/07/08 05:03:30;;;;;;;8.88;4.22;;;;;;;27.05;54.01;100361.73;1756076;81;21554;-64
2021/07/08 05:05:56;;;;;;;13.08;4.80;;;;;;;27.26;52.75;100370.32;1762427;81;20995;-64
2021/07/08 05:08:24;;;;;;;10.35;4.50;;;;;;;27.41;52.56;100373.05;1762175;81;21055;-63
2021/07/08 05:10:50;;;;;;;10.55;4.08;;;;;;;27.44;51.90;100369.51;1750046;81;20995;-64
2021/07/08 05:13:17;;;;;;;9.03;4.42;;;;;;;27.45;52.25;100376.76;1734968;80;21072;-64
2021/07/08 05:15:43;;;;;;;10.78;4.20;;;;;;;27.56;52.31;100377.75;1727604;82;21042;-64
2021/07/08 05:18:10;;;;;;;11.28;4.15;;;;;;;27.78;51.22;100378.96;1753577;81;21605;-64
2021/07/08 05:20:38;;;;;;;9.80;4.22;;;;;;;27.86;51.22;100379.31;1764073;81;21008;-64
2021/07/08 05:23:13;;;;;;;7.78;4.25;;;;;;;28.02;51.08;100381.39;1747620;81;21059;-64
2021/07/08 05:25:34;;;;;;;10.95;4.25;;;;;;;28.13;51.90;100382.41;1743340;82;21477;-65
2021/07/08 05:28:01;;;;;;;10.20;4.22;;;;;;;28.32;51.47;100377.92;1742087;81;21073;-64
2021/07/08 05:30:29;;;;;;;9.15;4.50;;;;;;;28.35;50.20;100379.97;1732304;81;21531;-63
2021/07/08 05:32:57;;;;;;;8.48;4.10;;;;;;;28.33;50.20;100390.75;1735915;81;21043;-64
2021/07/08 05:35:24;;;;;;;11.75;4.65;;;;;;;28.34;50.68;100384.76;1750318;81;20980;-65
2021/07/08 05:37:52;;;;;;;9.38;4.42;;;;;;;28.40;50.03;100390.86;1767614;81;21039;-64
2021/07/08 05:40:19;;;;;;;11.30;4.37;;;;;;;28.39;49.61;100383.64;1743377;81;21466;-64
2021/07/08 05:42:46;;;;;;;6.20;4.03;;;;;;;28.36;50.13;100387.19;1753727;81;21051;-64
2021/07/08 05:45:12;;;;;;;10.80;4.03;;;;;;;28.49;50.64;100395.01;1762509;81;20994;-64
2021/07/08 05:47:39;;;;;;;7.17;3.70;;;;;;;28.71;49.93;100391.97;1744169;81;21051;-64
2021/07/08 05:50:07;;;;;;;10.20;3.80;;;;;;;28.83;48.79;100398.77;1738536;82;21079;-63
2021/07/08 05:52:34;;;;;;;6.70;3.92;;;;;;;28.93;48.98;100390.29;1747670;81;21059;-65
2021/07/08 05:55:00;;;;;;;6.83;3.37;;;;;;;28.99;48.06;100390.97;1744260;81;21514;-64
2021/07/08 05:57:27;;;;;;;8.03;3.50;;;;;;;28.95;48.59;100393.51;1754474;80;21082;-64
2021/07/08 05:59:56;;;;;;;10.60;3.67;;;;;;;28.97;48.06;100395.35;1741185;81;21554;-65
2021/07/08 06:02:23;;;;;;;9.60;3.70;;;;;;;28.95;48.02;100399.11;1749491;81;21614;-64
2021/07/08 06:04:49;;;;;;;7.00;2.90;;;;;;;29.02;47.70;100399.20;1741418;81;21023;-64
2021/07/08 06:07:16;;;;;;;6.03;3.00;;;;;;;29.08;46.97;100397.71;1744440;81;21538;-63
2021/07/08 06:09:42;;;;;;;7.20;3.15;;;;;;;29.10;46.47;100397.53;1743877;81;20967;-64
2021/07/08 06:12:09;;;;;;;6.87;3.00;;;;;;;29.16;47.34;100396.59;1747848;81;21079;-64
2021/07/08 06:14:35;;;;;;;11.12;3.22;;;;;;;29.28;46.17;100389.97;1751985;81;21015;-64
2021/07/08 06:17:03;;;;;;;7.30;2.98;;;;;;;29.23;45.26;100391.70;1749061;81;21047;-63
2021/07/08 06:19:30;;;;;;;6.05;3.05;;;;;;;29.15;45.55;100394.41;1756111;81;20976;-64
2021/07/08 06:21:56;;;;;;;5.55;2.95;;;;;;;29.15;45.84;100395.81;1707574;81;21066;-65
2021/07/08 06:24:23;;;;;;;6.40;3.15;;;;;;;29.31;45.95;100404.62;1746685;81;21054;-64
2021/07/08 06:26:49;;;;;;;6.62;3.00;;;;;;;29.47;46.11;100406.64;1735226;81;21068;-64
2021/07/08 06:29:16;;;;;;;6.75;3.40;;;;;;;29.66;46.01;100409.25;1744222;81;21039;-65
2021/07/08 06:31:42;;;;;;;5.47;2.65;;;;;;;29.73;46.52;100409.92;1738604;82;20997;-65
2021/07/08 06:34:09;;;;;;;6.25;2.77;;;;;;;29.89;45.04;100404.33;1750931;80;21102;-64
2021/07/08 06:36:35;;;;;;;6.05;2.92;;;;;;;30.03;45.39;100412.08;1754093;81;21017;-64
2021/07/08 06:39:04;;;;;;;6.80;2.50;;;;;;;30.24;44.63;100418.48;1744873;81;21026;-66
2021/07/08 06:41:31;;;;;;;6.87;3.17;;;;;;;30.37;44.87;100415.58;1754665;81;21000;-64
2021/07/08 06:44:55;;;;;;;9.60;2.67;;;;;;;30.61;43.61;100410.78;1772611;79;23380;-62
2021/07/08 06:47:22;;;;;;;3.70;2.77;;;;;;;30.51;44.59;100424.15;1733202;81;21540;-64
2021/07/08 06:49:48;;;;;;;7.00;2.90;;;;;;;30.64;43.48;100423.27;1716959;81;21043;-65
2021/07/08 06:52:16;;;;;;;4.42;2.60;;;;;;;30.70;42.61;100426.72;1707949;81;21043;-62
2021/07/08 06:54:42;;;;;;;5.28;2.70;;;;;;;30.86;43.12;100432.83;1709114;83;20982;-63
2021/07/08 06:57:11;;;;;;;6.45;2.80;;;;;;;30.99;42.00;100413.69;1679724;83;21168;-65
2021/07/08 06:59:37;;;;;;;22.75;12.98;;;;;;;31.18;42.33;100425.23;1713825;83;21040;-63
2021/07/08 07:02:05;;;;;;;16.80;13.38;;;;;;;31.18;41.86;100426.02;1717450;82;21058;-62
2021/07/08 07:04:31;;;;;;;8.43;3.47;;;;;;;31.09;42.13;100426.98;1710766;82;21038;-62
2021/07/08 07:06:59;;;;;;;6.50;3.00;;;;;;;31.16;41.11;100422.00;1710911;83;21635;-63
2021/07/08 07:09:25;;;;;;;6.83;2.85;;;;;;;31.15;41.77;100419.78;1714353;82;21002;-63
2021/07/08 07:11:52;;;;;;;3.87;2.37;;;;;;;31.29;41.96;100428.28;1711695;83;21062;-63
2021/07/08 07:14:20;;;;;;;5.97;2.70;;;;;;;31.39;41.21;100426.74;1711182;83;21050;-62
2021/07/08 07:16:46;;;;;;;7.42;4.12;;;;;;;31.61;41.95;100425.62;1707107;83;21094;-62
2021/07/08 07:19:13;;;;;;;7.25;3.00;;;;;;;31.74;40.32;100428.30;1707595;83;21486;-62
2021/07/08 07:21:39;;;;;;;6.70;2.80;;;;;;;31.86;40.52;100430.73;1706386;83;21053;-63
2021/07/08 07:24:06;;;;;;;3.95;2.65;;;;;;;31.99;39.46;100429.77;1714275;83;21547;-63
2021/07/08 07:26:33;;;;;;;5.50;2.50;;;;;;;31.99;38.98;100429.77;1679557;83;20996;-64
2021/07/08 07:28:59;;;;;;;6.10;2.70;;;;;;;31.99;39.79;100431.17;1672315;86;21738;-63
2021/07/08 07:31:26;;;;;;;6.25;2.58;;;;;;;32.07;40.31;100428.58;1702600;84;21070;-64
2021/07/08 07:33:52;;;;;;;4.33;2.95;;;;;;;32.15;40.32;100426.58;1714057;83;21584;-64
2021/07/08 07:36:18;;;;;;;4.92;2.58;;;;;;;32.13;40.05;100438.27;1713418;83;21022;-64
2021/07/08 07:38:46;;;;;;;3.25;2.45;;;;;;;32.03;38.80;100434.17;1704614;83;21544;-64
2021/07/08 07:41:13;;;;;;;3.08;2.40;;;;;;;32.06;39.70;100433.41;1706920;83;20979;-65
2021/07/08 07:43:41;;;;;;;6.03;2.75;;;;;;;32.11;39.82;100432.21;1694081;83;21062;-64
2021/07/08 07:46:07;;;;;;;4.17;2.70;;;;;;;32.14;40.70;100437.04;1632181;87;21490;-64
2021/07/08 07:48:34;;;;;;;8.55;3.22;;;;;;;32.17;40.95;100436.23;1676318;84;21146;-64
2021/07/08 07:51:01;;;;;;;6.92;2.67;;;;;;;32.31;40.47;100439.06;1673734;84;21054;-64
2021/07/08 07:53:27;;;;;;;4.40;2.33;;;;;;;32.43;39.96;100436.45;1687257;84;21146;-65
2021/07/08 07:55:53;;;;;;;8.88;2.50;;;;;;;32.33;38.71;100438.67;1671592;84;21516;-64
2021/07/08 07:58:20;;;;;;;5.08;2.20;;;;;;;32.41;38.19;100430.43;1674312;84;21027;-63
2021/07/08 08:00:47;;;;;;;5.53;2.70;;;;;;;32.46;38.03;100437.05;1669567;84;21066;-65
2021/07/08 08:03:14;;;;;;;4.33;2.85;;;;;;;32.33;39.42;100429.63;1689980;82;21134;-64
2021/07/08 08:05:43;;;;;;;5.35;2.40;;;;;;;32.49;39.07;100435.64;1671091;84;21042;-64
2021/07/08 08:08:27;;;;;;;7.40;3.10;;;;;;;32.54;38.96;100445.72;1673244;84;21086;-64
2021/07/08 08:10:55;;;;;;;4.80;2.87;;;;;;;32.58;38.84;100448.53;1673656;84;21014;-64
2021/07/08 08:13:22;;;;;;;7.25;2.60;;;;;;;32.59;37.93;100445.95;1674629;84;21091;-64
2021/07/08 08:15:51;;;;;;;7.08;2.42;;;;;;;32.56;36.43;100435.64;1674462;84;21042;-64
2021/07/08 08:18:19;;;;;;;4.83;2.00;;;;;;;32.61;36.63;100445.74;1674049;84;21098;-64
2021/07/08 08:20:45;;;;;;;4.45;1.85;;;;;;;32.60;36.48;100445.53;1691435;84;20963;-64
2021/07/08 08:23:12;;;;;;;4.30;2.17;;;;;;;32.48;36.98;100441.70;1684153;83;21125;-64
2021/07/08 08:25:39;;;;;;;5.95;2.45;;;;;;;32.35;37.56;100446.91;1674304;84;21023;-66
2021/07/08 08:28:05;;;;;;;4.62;2.17;;;;;;;32.27;36.75;100443.10;1674347;84;21565;-66
2021/07/08 08:30:33;;;;;;;6.50;2.12;;;;;;;32.19;37.72;100445.10;1653542;84;21035;-66
2021/07/08 08:33:00;;;;;;;5.03;2.52;;;;;;;32.08;37.97;100444.88;1700514;83;21059;-66
2021/07/08 08:35:26;;;;;;;4.55;2.20;;;;;;;32.00;37.28;100446.24;1669054;84;21042;-66
2021/07/08 08:37:52;;;;;;;5.40;2.10;;;;;;;31.94;38.39;100446.44;1624063;86;21071;-67
2021/07/08 08:40:19;;;;;;;3.72;2.20;;;;;;;32.10;39.09;100449.52;1677372;84;21066;-66
2021/07/08 08:42:46;;;;;;;5.20;2.42;;;;;;;32.26;38.17;100447.12;1700614;83;21628;-63
2021/07/08 08:45:17;;;;;;;4.58;2.50;;;;;;;32.18;37.78;100450.52;1698227;83;21061;-66
2021/07/08 08:48:06;;;;;;;4.95;2.10;;;;;;;32.06;36.84;100453.12;1692744;83;21065;-66
2021/07/08 08:50:35;;;;;;;5.05;2.25;;;;;;;32.04;37.45;100451.88;1693556;84;21007;-64
2021/07/08 08:53:02;;;;;;;4.78;2.40;;;;;;;32.16;35.79;100443.69;1699320;83;21041;-64
2021/07/08 08:55:28;;;;;;;3.55;2.10;;;;;;;32.12;36.43;100452.73;1695580;84;21064;-65
2021/07/08 08:57:55;;;;;;;2.85;2.22;;;;;;;31.93;36.28;100448.23;1707224;84;21069;-64
2021/07/08 09:00:30;;;;;;;5.25;2.50;;;;;;;31.76;37.85;100452.62;1702364;84;20989;-65
2021/07/08 09:03:02;;;;;;;2.58;2.00;;;;;;;31.88;38.08;100446.64;1704482;84;21612;-65
2021/07/08 09:05:30;;;;;;;5.15;2.20;;;;;;;32.00;37.03;100444.84;1672661;85;21536;-66
2021/07/08 09:08:21;;;;;;;4.47;2.10;;;;;;;32.03;37.57;100448.85;1698360;83;21539;-66
2021/07/08 09:11:13;;;;;;;6.20;2.40;;;;;;;31.93;36.59;100446.83;1703848;84;21007;-66
2021/07/08 09:13:53;;;;;;;5.05;2.20;;;;;;;31.82;36.38;100451.63;1692304;83;21560;-66
2021/07/08 09:16:23;;;;;;;4.28;2.27;;;;;;;31.78;36.67;100443.17;1706451;84;21476;-65
2021/07/08 09:19:09;;;;;;;3.85;2.40;;;;;;;31.82;36.03;100443.98;1706807;84;21053;-66
2021/07/08 09:21:46;;;;;;;5.75;2.30;;;;;;;31.82;35.93;100445.98;1679406;84;21120;-65
2021/07/08 09:24:24;;;;;;;4.97;2.47;;;;;;;31.93;38.16;100440.59;1694902;84;21091;-63
2021/07/08 09:27:05;;;;;;;6.12;2.10;;;;;;;32.11;36.63;100447.70;1700708;83;21032;-65
2021/07/08 09:29:48;;;;;;;7.45;2.30;;;;;;;32.07;37.09;100451.11;1701652;84;21091;-64
2021/07/08 09:32:17;;;;;;;8.15;2.60;;;;;;;32.07;35.26;100448.29;1690199;83;21051;-64
2021/07/08 09:34:54;;;;;;;5.25;2.27;;;;;;;32.10;36.32;100447.48;1700812;84;21058;-64
2021/07/08 09:37:28;;;;;;;5.17;2.40;;;;;;;32.19;36.28;100442.29;1699623;83;21627;-66
2021/07/08 09:39:59;;;;;;;4.83;2.40;;;;;;;32.35;37.80;100442.69;1695769;83;21533;-62
2021/07/08 09:42:41;;;;;;;7.33;2.52;;;;;;;32.56;35.24;100441.88;1700862;84;21587;-64
2021/07/08 09:45:13;;;;;;;7.92;2.60;;;;;;;32.56;35.61;100444.70;1722151;81;21032;-62
2021/07/08 09:47:45;;;;;;;5.12;2.60;;;;;;;32.58;34.16;100447.94;1730716;81;21598;-61
2021/07/08 09:50:32;;;;;;;4.03;2.58;;;;;;;32.59;33.52;100445.36;1705505;82;20985;-62
2021/07/08 09:53:08;;;;;;;5.80;2.70;;;;;;;32.68;35.08;100439.29;1730944;82;21562;-64
2021/07/08 09:58:29;;;;;;;5.62;2.58;;;;;;;32.88;32.70;100437.04;1730512;83;21604;-62
2021/07/08 10:00:55;;;;;;;5.90;2.40;;;;;;;32.76;32.57;100436.67;1730494;83;21062;-62
2021/07/08 10:03:23;;;;;;;5.67;2.42;;;;;;;32.75;32.71;100428.81;1730558;81;21038;-65
2021/07/08 10:05:49;;;;;;;6.42;2.55;;;;;;;32.74;33.73;100426.39;1730546;83;21049;-62
2021/07/08 10:08:21;;;;;;;4.28;2.42;;;;;;;32.89;34.40;100428.79;1730678;83;21617;-62
2021/07/08 10:10:46;;;;;;;4.12;2.50;;;;;;;32.77;34.37;100424.97;1725744;81;21064;-65
2021/07/08 10:13:12;;;;;;;5.28;2.45;;;;;;;32.47;34.50;100421.17;1671740;83;21007;-65
2021/07/08 10:15:41;;;;;;;7.60;2.90;;;;;;;32.26;34.44;100425.99;1707679;83;21478;-65
2021/07/08 10:18:07;;;;;;;4.90;2.77;;;;;;;32.13;35.64;100425.59;1729786;81;21596;-65
2021/07/08 10:20:34;;;;;;;6.45;2.65;;;;;;;32.08;36.12;100423.16;1695427;83;21030;-65
2021/07/08 10:23:00;;;;;;;6.15;2.70;;;;;;;32.09;34.47;100421.16;1719168;83;21575;-64
2021/07/08 10:25:27;;;;;;;5.40;2.75;;;;;;;32.05;34.91;100422.52;1724834;82;21014;-65
2021/07/08 10:27:54;;;;;;;5.08;3.10;;;;;;;32.03;33.81;100421.50;1730173;81;21062;-63
2021/07/08 10:30:21;;;;;;;7.33;3.00;;;;;;;31.86;35.71;100422.28;1730343;83;20989;-62
2021/07/08 10:32:56;;;;;;;8.03;2.87;;;;;;;31.80;37.79;100419.66;1724109;81;21590;-63
2021/07/08 10:35:48;;;;;;;5.47;2.67;;;;;;;31.78;36.18;100413.61;1723384;83;21350;-63
2021/07/08 10:38:38;;;;;;;5.53;2.72;;;;;;;31.85;37.38;100417.07;1728255;82;21102;-64
2021/07/08 10:41:13;;;;;;;5.97;2.70;;;;;;;31.93;36.76;100417.27;1728682;83;20991;-63
2021/07/08 10:43:42;;;;;;;4.58;2.60;;;;;;;31.88;35.92;100416.27;1721994;83;21086;-63
2021/07/08 10:46:16;;;;;;;4.83;2.75;;;;;;;31.83;37.89;100418.05;1699598;83;21085;-64
2021/07/08 10:48:48;;;;;;;6.15;2.72;;;;;;;31.72;38.43;100417.22;1724276;82;21072;-63
2021/07/08 10:51:31;;;;;;;5.20;2.87;;;;;;;31.72;37.03;100414.41;1725327;83;21508;-64
2021/07/08 10:53:58;;;;;;;7.10;2.85;;;;;;;31.89;36.46;100411.62;1692556;83;21489;-65
2021/07/08 10:56:33;;;;;;;6.72;2.80;;;;;;;32.14;34.39;100413.70;1679771;83;21113;-65
2021/07/08 10:59:13;;;;;;;6.92;2.85;;;;;;;32.27;34.18;100406.48;1697454;83;20986;-64
2021/07/08 11:01:43;;;;;;;6.37;2.80;;;;;;;32.39;35.06;100401.23;1720425;83;21005;-64
2021/07/08 11:04:10;;;;;;;6.03;2.85;;;;;;;32.50;35.54;100402.64;1720729;83;21082;-64
2021/07/08 11:06:43;;;;;;;6.75;3.08;;;;;;;32.66;34.83;100407.30;1725620;83;21489;-65
2021/07/08 11:09:18;;;;;;;10.50;2.90;;;;;;;32.79;34.38;100398.61;1716853;83;21576;-66
2021/07/08 11:11:50;;;;;;;5.83;2.85;;;;;;;32.87;34.14;100400.20;1691052;85;21051;-65
2021/07/08 11:14:27;;;;;;;9.50;3.30;;;;;;;32.91;34.31;100399.56;1713773;83;21043;-65
2021/07/08 11:17:11;;;;;;;5.75;2.75;;;;;;;32.94;34.88;100389.52;1691490;83;21027;-65
2021/07/08 11:19:39;;;;;;;4.95;2.83;;;;;;;32.97;34.24;100388.09;1706067;83;21060;-65
2021/07/08 11:22:13;;;;;;;7.65;2.75;;;;;;;33.02;35.48;100390.47;1714227;82;21080;-65
2021/07/08 11:24:45;;;;;;;5.00;2.77;;;;;;;33.17;35.08;100387.03;1718109;82;21090;-65
2021/07/08 11:27:17;;;;;;;10.15;4.15;;;;;;;33.28;34.34;100384.98;1722951;83;21135;-65
2021/07/08 11:29:51;;;;;;;6.75;3.22;;;;;;;33.42;33.77;100378.45;1724155;83;20999;-64
2021/07/08 11:32:48;;;;;;;4.40;3.33;;;;;;;33.48;34.14;100381.84;1712116;83;21567;-64
2021/07/08 11:35:38;;;;;;;4.47;2.47;;;;;;;33.47;34.40;100380.26;1710848;83;21035;-64
2021/07/08 11:38:14;;;;;;;6.15;3.45;;;;;;;33.44;32.81;100380.28;1723113;83;21068;-65